Cavalier, ND

11:15 PM CDT on May 24, 2018 (GMT -0500)
Cavalier

Weather History for K2C8 - April, 2013

Change the Weather History Date:

Saturday, April 6, 2013

  Actual Average (KGAF) Record (KGAF)
Temperature  
Mean Temperature 31 °F -  
Max Temperature 32 °F 48 °F 78 °F (1991)
Min Temperature 30 °F 26 °F -11 °F (1979)
Degree Days  
Heating Degree Days 34    
Moisture  
Dew Point -59 °F    
Average Humidity 4    
Maximum Humidity 4    
Minimum Humidity 4    
Precipitation  
Precipitation 0.00 in - - ()
Sea Level Pressure  
Sea Level Pressure 29.78 in    
Wind  
Wind Speed 7 mph (NNE)    
Max Wind Speed 15 mph    
Max Gust Speed 20 mph    
Visibility 10 miles    
Events Rain    
Averages and records for this station are not official NWS values.
T = Trace of Precipitation, MM = Missing Value Source: NWS Daily Summary

Daily Weather History Graph

Daily Weather History Graph

Search for Another Location

Airport or City:

Astronomy

Apr. 06, 2013 Rise Set
Actual Time 6:57 AM CDT 8:09 PM CDT
Civil Twilight 6:24 AM CDT 8:41 PM CDT
Nautical Twilight 5:45 AM CDT 9:20 PM CDT
Astronomical Twilight 5:04 AM CDT 10:02 PM CDT
Moon 4:59 AM CDT (4/6) 4:23 PM CDT (4/6)
Length of Visible Light 14h 16m
Length of Day
13h 12m
Waning Crescent, 15% of the Moon is Illuminated
Apr 6
Waning Crescent
Apr 10
New
Apr 18
First Quarter
Apr 25
Full
May 2
Last Quarter

Hourly Weather History & Observations

Time (CDT) Temp. Windchill Dew Point Humidity Pressure Visibility Wind Dir Wind Speed Gust Speed Precip Events Conditions
12:15 AM 30.2 °F 24.3 °F -61.6 °F 4% 29.85 in 10.0 mi ESE 5.8 mph - N/A   Overcast
12:35 AM 30.2 °F 24.3 °F -61.6 °F 4% 29.83 in 10.0 mi ESE 5.8 mph - N/A   Overcast
12:55 AM 30.2 °F 24.3 °F -61.6 °F 4% 29.83 in 10.0 mi SE 5.8 mph - N/A   Overcast
1:15 AM 30.2 °F 23.4 °F -61.6 °F 4% 29.82 in 10.0 mi SE 6.9 mph - N/A   Overcast
1:35 AM 30.2 °F 23.4 °F -59.8 °F 4% 29.82 in 10.0 mi SE 6.9 mph - N/A   Overcast
1:55 AM 30.2 °F 24.3 °F -59.8 °F 4% 29.82 in 10.0 mi SE 5.8 mph - N/A   Overcast
2:15 AM 30.2 °F 24.3 °F -59.8 °F 4% 29.81 in 10.0 mi ESE 5.8 mph - N/A   Overcast
2:35 AM 30.2 °F 23.4 °F -59.8 °F 4% 29.80 in 10.0 mi SE 6.9 mph - N/A   Overcast
2:55 AM 32.0 °F 26.4 °F -59.8 °F 4% 29.79 in 10.0 mi SE 5.8 mph - N/A   Overcast
3:15 AM 30.2 °F 23.4 °F -59.8 °F 4% 29.78 in 10.0 mi SE 6.9 mph - N/A   Overcast
3:35 AM 30.2 °F 24.3 °F -61.6 °F 4% 29.77 in 10.0 mi SE 5.8 mph - N/A   Mostly Cloudy
3:55 AM 30.2 °F 24.3 °F -59.8 °F 4% 29.77 in 10.0 mi SE 5.8 mph - N/A   Mostly Cloudy
4:15 AM 30.2 °F 25.4 °F -59.8 °F 4% 29.76 in 10.0 mi East 4.6 mph - N/A   Mostly Cloudy
4:35 AM 30.2 °F 24.3 °F -61.6 °F 4% 29.75 in 10.0 mi ESE 5.8 mph - N/A   Overcast
4:55 AM 30.2 °F 24.3 °F -61.6 °F 4% 29.75 in 10.0 mi ESE 5.8 mph - N/A   Mostly Cloudy
5:15 AM 30.2 °F 24.3 °F -61.6 °F 4% 29.74 in 10.0 mi ESE 5.8 mph - N/A   Mostly Cloudy
5:35 AM 30.2 °F 24.3 °F -61.6 °F 4% 29.73 in 10.0 mi ESE 5.8 mph - N/A   Overcast
5:55 AM 30.2 °F 24.3 °F -61.6 °F 4% 29.73 in 10.0 mi ESE 5.8 mph - N/A   Overcast
6:15 AM 30.2 °F 26.7 °F -61.6 °F 4% 29.72 in 10.0 mi ESE 3.5 mph - N/A   Overcast
6:35 AM 30.2 °F 25.4 °F -59.8 °F 4% 29.73 in 10.0 mi ESE 4.6 mph - N/A   Overcast
6:55 AM 30.2 °F 26.7 °F -59.8 °F 4% 29.73 in 10.0 mi ENE 3.5 mph - N/A   Overcast
7:15 AM 30.2 °F - -61.6 °F 4% 29.73 in 10.0 mi Calm Calm - N/A   Overcast
7:35 AM 30.2 °F - -61.6 °F 4% 29.74 in 10.0 mi Calm Calm - N/A   Overcast
7:55 AM 30.2 °F 26.7 °F -61.6 °F 4% 29.73 in 10.0 mi East 3.5 mph - N/A   Overcast
8:15 AM 30.2 °F - -61.6 °F 4% 29.74 in 10.0 mi Calm Calm - N/A   Overcast
8:35 AM 32.0 °F - -59.8 °F 4% 29.74 in 10.0 mi Calm Calm - N/A   Overcast
8:55 AM 32.0 °F 28.7 °F -59.8 °F 4% 29.73 in 10.0 mi East 3.5 mph - N/A   Overcast
9:15 AM 32.0 °F 27.5 °F -59.8 °F 4% 29.73 in 10.0 mi ENE 4.6 mph - N/A   Overcast
9:35 AM 32.0 °F 28.7 °F -59.8 °F 4% 29.73 in 10.0 mi NE 3.5 mph - N/A   Overcast
9:55 AM 32.0 °F 28.7 °F -59.8 °F 4% 29.72 in 10.0 mi NE 3.5 mph - N/A   Overcast
10:15 AM 32.0 °F 28.7 °F -58.0 °F 4% 29.72 in 10.0 mi NNE 3.5 mph - N/A   Overcast
10:35 AM 32.0 °F - -58.0 °F 4% 29.72 in 10.0 mi Calm Calm - N/A   Overcast
10:55 AM 32.0 °F 25.6 °F -59.8 °F 4% 29.73 in 10.0 mi NNW 6.9 mph - N/A   Overcast
11:15 AM 32.0 °F 25.6 °F -59.8 °F 4% 29.73 in 10.0 mi NNW 6.9 mph - N/A   Overcast
11:35 AM 32.0 °F 25.6 °F -58.0 °F 4% 29.73 in 10.0 mi NNW 6.9 mph - N/A   Overcast
11:55 AM 32.0 °F 24.8 °F -58.0 °F 4% 29.73 in 7.0 mi North 8.1 mph - N/A   Overcast
12:15 PM 32.0 °F 24.2 °F -58.0 °F 4% 29.74 in 3.0 mi NNW 9.2 mph - N/A Rain Light Rain
12:35 PM 32.0 °F 23.0 °F -58.0 °F 4% 29.74 in 6.0 mi NNW 11.5 mph - N/A Rain Light Rain
12:55 PM 32.0 °F 23.0 °F -58.0 °F 4% 29.74 in 9.0 mi NNW 11.5 mph - N/A   Overcast
1:15 PM 32.0 °F 24.2 °F -58.0 °F 4% 29.74 in 7.0 mi North 9.2 mph - N/A   Overcast
1:35 PM 32.0 °F 23.0 °F -58.0 °F 4% 29.74 in 9.0 mi North 11.5 mph - N/A   Overcast
1:55 PM 32.0 °F 23.6 °F -58.0 °F 4% 29.74 in 5.0 mi North 10.4 mph - N/A Rain Light Rain
2:15 PM 32.0 °F 23.6 °F -58.0 °F 4% 29.75 in 4.0 mi North 10.4 mph - N/A Rain Light Rain
2:35 PM 32.0 °F 22.1 °F -56.2 °F 4% 29.75 in 10.0 mi NNW 13.8 mph - N/A   Overcast
2:55 PM 32.0 °F 21.6 °F -58.0 °F 4% 29.75 in 10.0 mi NNW 15.0 mph 18.4 mph N/A   Overcast
3:15 PM 32.0 °F 22.1 °F -58.0 °F 4% 29.76 in 10.0 mi NNW 13.8 mph - N/A   Mostly Cloudy
3:35 PM 32.0 °F 22.5 °F -58.0 °F 4% 29.76 in 10.0 mi NNW 12.7 mph - N/A   Overcast
3:55 PM 32.0 °F 22.1 °F -58.0 °F 4% 29.76 in 10.0 mi NNW 13.8 mph 19.6 mph N/A   Overcast
4:15 PM 32.0 °F 22.1 °F -58.0 °F 4% 29.76 in 9.0 mi North 13.8 mph - N/A   Overcast
4:35 PM 32.0 °F 21.6 °F -58.0 °F 4% 29.77 in 10.0 mi North 15.0 mph - N/A   Overcast
4:55 PM 32.0 °F 22.5 °F -58.0 °F 4% 29.78 in 10.0 mi NNW 12.7 mph - N/A   Overcast
5:15 PM 32.0 °F 22.5 °F -58.0 °F 4% 29.78 in 10.0 mi North 12.7 mph - N/A   Overcast
5:35 PM 32.0 °F 22.5 °F -58.0 °F 4% 29.79 in 10.0 mi North 12.7 mph - N/A   Overcast
5:55 PM 32.0 °F 22.1 °F -58.0 °F 4% 29.79 in 10.0 mi North 13.8 mph - N/A   Overcast
6:15 PM 32.0 °F 23.0 °F -58.0 °F 4% 29.81 in 10.0 mi North 11.5 mph 17.3 mph N/A   Overcast
6:35 PM 32.0 °F 22.1 °F -58.0 °F 4% 29.81 in 10.0 mi NNW 13.8 mph - N/A   Overcast
6:55 PM 32.0 °F 23.0 °F -45.4 °F 4% 29.82 in 10.0 mi North 11.5 mph - N/A   Overcast
7:15 PM 32.0 °F 22.5 °F -58.0 °F 4% 29.82 in 10.0 mi North 12.7 mph 16.1 mph N/A   Overcast
7:35 PM 32.0 °F 23.0 °F -58.0 °F 4% 29.82 in 10.0 mi North 11.5 mph - N/A   Overcast
7:55 PM 32.0 °F 23.0 °F -58.0 °F 4% 29.83 in 10.0 mi NNW 11.5 mph - N/A   Overcast
8:15 PM 32.0 °F 23.6 °F -58.0 °F 4% 29.83 in 10.0 mi North 10.4 mph - N/A   Overcast
8:35 PM 32.0 °F 24.2 °F -59.8 °F 4% 29.84 in 10.0 mi NNW 9.2 mph - N/A   Overcast
8:55 PM 32.0 °F 24.8 °F -58.0 °F 4% 29.84 in 10.0 mi North 8.1 mph - N/A   Overcast
9:15 PM 32.0 °F 24.2 °F -58.0 °F 4% 29.84 in 10.0 mi North 9.2 mph - N/A   Overcast
9:35 PM 32.0 °F 24.8 °F -58.0 °F 4% 29.85 in 10.0 mi North 8.1 mph - N/A   Overcast
9:55 PM 32.0 °F 24.8 °F -58.0 °F 4% 29.86 in 10.0 mi North 8.1 mph - N/A   Overcast
10:15 PM 32.0 °F 24.8 °F -58.0 °F 4% 29.86 in 10.0 mi NNW 8.1 mph - N/A   Overcast
10:35 PM 32.0 °F 24.2 °F -58.0 °F 4% 29.87 in 10.0 mi NNW 9.2 mph - N/A   Overcast
10:55 PM 32.0 °F 24.8 °F -58.0 °F 4% 29.87 in 10.0 mi NNW 8.1 mph - N/A   Overcast
11:15 PM 32.0 °F 26.4 °F -58.0 °F 4% 29.87 in 10.0 mi North 5.8 mph - N/A   Overcast
11:35 PM 32.0 °F 26.4 °F -58.0 °F 4% 29.87 in 10.0 mi NNW 5.8 mph - N/A   Overcast
11:55 PM 32.0 °F 27.5 °F -58.0 °F 4% 29.86 in 10.0 mi North 4.6 mph - N/A   Overcast